createdAt,value
2018-01-15T00:00:07.089Z,95.43
2018-01-15T00:02:36.139Z,95.60
2018-01-15T00:05:05.228Z,95.06
2018-01-15T00:07:34.277Z,94.78
2018-01-15T00:10:03.321Z,94.61
2018-01-15T00:12:32.373Z,94.50
2018-01-15T00:15:01.431Z,94.76
2018-01-15T00:17:30.778Z,94.74
2018-01-15T00:19:59.880Z,94.41
2018-01-15T00:22:33.101Z,94.95
2018-01-15T00:25:02.153Z,94.87
2018-01-15T00:27:31.205Z,95.14
2018-01-15T00:30:00.266Z,95.23
2018-01-15T00:32:29.338Z,94.94
2018-01-15T00:34:58.377Z,94.75
2018-01-15T00:37:27.437Z,94.66
2018-01-15T00:39:56.669Z,94.55
2018-01-15T00:42:25.682Z,94.64
2018-01-15T00:44:54.743Z,94.54
2018-01-15T00:47:23.804Z,94.80
2018-01-15T00:49:52.869Z,94.54
2018-01-15T00:52:21.942Z,93.58
2018-01-15T00:54:50.997Z,94.55
2018-01-15T00:57:20.074Z,94.87
2018-01-15T00:59:49.125Z,94.63
2018-01-15T01:02:18.178Z,94.45
2018-01-15T01:04:47.276Z,94.40
2018-01-15T01:07:16.299Z,95.11
2018-01-15T01:09:45.357Z,95.06
2018-01-15T01:12:14.393Z,94.57
2018-01-15T01:14:43.473Z,94.60
2018-01-15T01:17:12.537Z,94.64
2018-01-15T01:19:41.621Z,95.19
2018-01-15T01:22:10.677Z,95.52
2018-01-15T01:24:39.726Z,95.76
2018-01-15T01:29:44.044Z,95.44
2018-01-15T01:32:13.089Z,95.66
2018-01-15T01:34:42.181Z,95.85
2018-01-15T01:37:11.223Z,96.12
2018-01-15T01:39:40.313Z,96.14
2018-01-15T01:42:09.357Z,96.28
2018-01-15T01:44:38.415Z,96.48
2018-01-15T01:47:07.474Z,96.57
2018-01-15T01:49:36.533Z,96.99
2018-01-15T01:52:05.597Z,96.86
2018-01-15T01:57:09.950Z,96.63
2018-01-15T01:59:39.033Z,96.61
2018-01-15T02:02:08.089Z,96.44
2018-01-15T02:04:37.157Z,96.17
2018-01-15T02:07:06.198Z,96.30
2018-01-15T02:09:35.268Z,96.32
2018-01-15T02:12:04.341Z,95.80
2018-01-15T02:14:33.401Z,95.75
2018-01-15T02:17:02.437Z,95.92
2018-01-15T02:19:31.504Z,95.73
2018-01-15T02:22:00.591Z,95.52
2018-01-15T02:24:29.665Z,95.64
2018-01-15T02:26:58.712Z,95.36
2018-01-15T02:29:27.769Z,95.64
2018-01-15T02:31:56.826Z,95.82
2018-01-15T02:34:25.864Z,95.76
2018-01-15T02:36:54.909Z,96.12
2018-01-15T02:39:23.969Z,95.93
2018-01-15T02:41:53.014Z,95.84
2018-01-15T02:44:22.061Z,95.78
2018-01-15T02:46:52.179Z,95.26
2018-01-15T02:49:21.216Z,95.17
2018-01-15T02:51:50.277Z,95.37
2018-01-15T02:54:19.318Z,95.22
2018-01-15T02:56:48.409Z,95.07
2018-01-15T02:59:17.453Z,95.26
2018-01-15T03:01:46.534Z,95.31
2018-01-15T03:04:15.589Z,94.93
2018-01-15T03:06:44.641Z,94.73
2018-01-15T03:09:13.715Z,94.10
2018-01-15T03:11:42.769Z,94.19
2018-01-15T03:14:11.817Z,94.36
2018-01-15T03:16:40.864Z,94.21
2018-01-15T03:19:09.921Z,93.79
2018-01-15T03:21:38.980Z,93.88
2018-01-15T03:24:08.026Z,93.83
2018-01-15T03:26:37.077Z,93.57
2018-01-15T03:29:06.131Z,93.31
2018-01-15T03:31:35.177Z,93.44
2018-01-15T03:34:04.242Z,93.06
2018-01-15T03:36:33.294Z,92.75
2018-01-15T03:39:02.367Z,93.21
2018-01-15T03:41:31.405Z,93.46
2018-01-15T03:44:00.446Z,93.73
2018-01-15T03:46:34.666Z,93.38
2018-01-15T03:49:03.873Z,93.28
2018-01-15T03:51:32.914Z,93.08
2018-01-15T03:54:01.992Z,93.54
2018-01-15T03:56:31.035Z,93.46
2018-01-15T03:59:00.102Z,93.77
2018-01-15T04:01:29.366Z,93.57
2018-01-15T04:03:58.417Z,93.49
2018-01-15T04:06:27.465Z,93.61
2018-01-15T04:08:56.521Z,93.67
2018-01-15T04:11:25.573Z,93.83
2018-01-15T04:13:55.290Z,93.48
2018-01-15T04:16:24.323Z,93.36
2018-01-15T04:18:57.807Z,93.26
2018-01-15T04:21:27.005Z,93.50
2018-01-15T04:23:56.044Z,93.77
2018-01-15T04:26:25.094Z,93.47
2018-01-15T04:28:54.142Z,92.90
2018-01-15T04:31:23.192Z,93.81
2018-01-15T04:33:52.237Z,93.61
2018-01-15T04:36:21.305Z,93.08
2018-01-15T04:38:50.365Z,93.62
2018-01-15T04:41:19.413Z,93.35
2018-01-15T04:43:48.465Z,93.01
2018-01-15T04:46:17.526Z,92.96
2018-01-15T04:48:46.612Z,93.12
2018-01-15T04:53:50.893Z,94.14
2018-01-15T04:56:19.973Z,93.90
2018-01-15T04:58:49.038Z,94.26
2018-01-15T05:01:18.115Z,94.23
2018-01-15T05:03:47.159Z,94.29
2018-01-15T05:06:16.217Z,94.49
2018-01-15T05:08:45.266Z,94.13
2018-01-15T05:11:14.317Z,94.24
2018-01-15T05:13:43.372Z,94.27
2018-01-15T05:16:12.450Z,94.15
2018-01-15T05:18:41.539Z,94.27
2018-01-15T05:21:10.556Z,94.29
2018-01-15T05:23:39.609Z,93.88
2018-01-15T05:26:08.669Z,93.74
2018-01-15T05:28:37.739Z,94.10
2018-01-15T05:31:12.101Z,94.08
2018-01-15T05:33:41.149Z,93.91
2018-01-15T05:36:10.209Z,93.97
2018-01-15T05:38:39.254Z,94.09
2018-01-15T05:43:43.515Z,93.58
2018-01-15T05:46:12.677Z,93.50
2018-01-15T05:48:41.748Z,93.31
2018-01-15T05:51:10.806Z,93.19
2018-01-15T05:53:39.849Z,93.20
2018-01-15T05:56:09.462Z,93.19
2018-01-15T05:58:38.739Z,93.13
2018-01-15T06:01:07.825Z,93.13
2018-01-15T06:03:36.883Z,93.10
2018-01-15T06:08:41.189Z,93.35
2018-01-15T06:11:10.239Z,93.38
2018-01-15T06:13:39.302Z,93.32
2018-01-15T06:16:08.337Z,93.11
2018-01-15T06:18:37.397Z,92.92
2018-01-15T06:23:34.296Z,92.95
2018-01-15T06:26:03.405Z,93.03
2018-01-15T06:28:32.449Z,93.40
2018-01-15T06:31:01.562Z,93.60
2018-01-15T06:33:35.190Z,93.66
2018-01-15T06:36:04.251Z,93.27
2018-01-15T06:38:33.294Z,93.03
2018-01-15T06:41:02.354Z,93.00
2018-01-15T06:43:31.415Z,93.07
2018-01-15T06:46:00.461Z,92.66
2018-01-15T06:48:29.518Z,93.16
2018-01-15T06:50:58.595Z,93.29
2018-01-15T06:53:27.693Z,92.87
2018-01-15T06:55:56.766Z,92.11
2018-01-15T06:58:25.793Z,91.78
2018-01-15T07:00:59.397Z,90.84
2018-01-15T07:06:06.477Z,90.83
2018-01-15T07:08:35.533Z,91.21
2018-01-15T07:11:04.602Z,91.15
2018-01-15T07:13:33.702Z,90.84
2018-01-15T07:16:02.762Z,91.12
2018-01-15T07:18:31.813Z,90.76
2018-01-15T07:21:00.875Z,90.12
2018-01-15T07:23:29.926Z,90.05
2018-01-15T07:25:59.037Z,90.53
2018-01-15T07:28:28.047Z,90.89
2018-01-15T07:30:57.117Z,91.06
2018-01-15T07:33:26.195Z,91.20
2018-01-15T07:35:55.285Z,90.76
2018-01-15T07:38:24.313Z,90.14
2018-01-15T07:40:53.385Z,89.86
2018-01-15T07:43:22.485Z,89.82
2018-01-15T07:45:51.541Z,90.41
2018-01-15T07:48:20.619Z,90.45
2018-01-15T07:50:49.663Z,89.67
2018-01-15T07:53:18.725Z,89.36
2018-01-15T07:55:47.827Z,89.22
2018-01-15T07:58:18.265Z,89.58
2018-01-15T08:00:47.322Z,89.12
2018-01-15T08:03:16.514Z,89.21
2018-01-15T08:08:22.244Z,89.28
2018-01-15T08:10:51.301Z,87.79
2018-01-15T08:13:20.387Z,88.87
2018-01-15T08:15:49.400Z,88.86
2018-01-15T08:19:41.221Z,89.03
2018-01-15T08:22:10.282Z,89.06
2018-01-15T08:24:39.339Z,88.46
2018-01-15T08:27:08.411Z,88.56
2018-01-15T08:29:37.442Z,88.78
2018-01-15T08:32:06.514Z,87.94
2018-01-15T08:34:35.557Z,87.63
2018-01-15T08:37:04.609Z,86.24
2018-01-15T08:39:40.025Z,86.79
2018-01-15T08:42:09.391Z,85.66
2018-01-15T08:44:38.449Z,85.19
2018-01-15T08:47:07.488Z,84.97
2018-01-15T08:49:36.522Z,84.15
2018-01-15T08:52:05.623Z,84.80
2018-01-15T08:54:34.654Z,84.60
2018-01-15T08:57:03.698Z,83.65
2018-01-15T09:02:07.962Z,83.67
2018-01-15T09:04:36.997Z,81.17
2018-01-15T09:07:06.064Z,82.80
2018-01-15T09:09:35.097Z,82.70
2018-01-15T09:12:04.137Z,80.46
2018-01-15T09:14:33.193Z,78.22
2018-01-15T09:17:02.263Z,74.17
2018-01-15T09:22:10.509Z,67.14
2018-01-15T09:24:39.550Z,63.52
2018-01-15T09:27:08.643Z,52.32
2018-01-15T09:32:13.439Z,54.99
2018-01-15T09:34:42.479Z,58.20
2018-01-15T09:37:11.548Z,49.58
2018-01-15T09:39:40.590Z,53.64
2018-01-15T09:42:11.437Z,52.65
2018-01-15T09:44:44.661Z,47.39
2018-01-15T09:49:50.174Z,46.39
2018-01-15T09:52:19.232Z,46.80
2018-01-15T09:54:49.513Z,44.89
2018-01-15T09:57:18.567Z,32.68
2018-01-15T09:59:47.796Z,48.27
2018-01-15T10:02:16.829Z,48.22
2018-01-15T10:04:45.902Z,41.52
2018-01-15T10:07:14.949Z,37.17
2018-01-15T10:09:44.002Z,42.41
2018-01-15T10:12:13.078Z,41.26
2018-01-15T10:14:42.124Z,45.91
2018-01-15T10:17:11.161Z,48.61
2018-01-15T10:19:40.209Z,50.86
2018-01-15T10:22:09.289Z,48.89
2018-01-15T10:27:13.638Z,46.72
2018-01-15T10:29:42.634Z,46.42
2018-01-15T10:32:11.674Z,41.44
2018-01-15T10:34:40.721Z,40.12
2018-01-15T10:37:09.835Z,40.51
2018-01-15T10:39:38.890Z,35.20
2018-01-15T10:42:08.024Z,31.51
2018-01-15T10:44:37.205Z,31.07
2018-01-15T10:47:06.254Z,38.69
2018-01-15T10:49:35.297Z,28.91
2018-01-15T10:52:04.345Z,35.70
2018-01-15T10:54:33.376Z,34.27
2018-01-15T10:57:02.420Z,31.34
2018-01-15T10:59:31.466Z,29.45
2018-01-15T11:02:00.542Z,27.75
2018-01-15T11:07:09.968Z,33.35
2018-01-15T11:09:38.983Z,28.98
2018-01-15T11:12:08.151Z,33.05
2018-01-15T11:17:12.646Z,30.93
2018-01-15T11:22:17.105Z,30.75
2018-01-15T11:24:46.185Z,27.67
2018-01-15T11:29:50.621Z,27.57
2018-01-15T11:32:20.703Z,30.21
2018-01-15T11:34:50.469Z,30.75
2018-01-15T11:37:19.533Z,25.79
2018-01-15T11:39:49.828Z,29.05
2018-01-15T11:42:18.877Z,25.69
2018-01-15T11:47:23.269Z,25.06
2018-01-15T11:49:52.316Z,25.06
2018-01-15T11:52:21.377Z,30.90
2018-01-15T11:54:51.413Z,28.44
2018-01-15T11:57:20.457Z,24.24
2018-01-15T11:59:50.765Z,28.79
2018-01-15T12:02:19.785Z,23.95
2018-01-15T12:04:50.092Z,25.35
2018-01-15T12:07:19.145Z,22.22
2018-01-15T12:09:49.125Z,23.25
2018-01-15T12:12:18.209Z,26.33
2018-01-15T12:17:23.729Z,23.13
2018-01-15T12:19:52.793Z,27.09
2018-01-15T12:22:21.836Z,25.63
2018-01-15T12:24:51.691Z,25.71
2018-01-15T12:27:20.677Z,29.68
2018-01-15T12:29:50.735Z,28.07
2018-01-15T12:32:19.772Z,30.67
2018-01-15T12:34:49.716Z,29.37
2018-01-15T12:37:18.765Z,29.59
2018-01-15T12:39:48.891Z,29.05
2018-01-15T12:42:17.971Z,30.07
2018-01-15T12:47:22.309Z,31.02
2018-01-15T12:52:31.947Z,29.94
2018-01-15T12:55:01.042Z,32.52
2018-01-15T12:57:30.079Z,31.74
2018-01-15T13:02:34.421Z,30.26
2018-01-15T13:07:57.538Z,30.20
2018-01-15T13:10:26.549Z,29.69
2018-01-15T13:12:55.607Z,28.77
2018-01-15T13:15:30.803Z,27.97
2018-01-15T13:17:59.852Z,29.26
2018-01-15T13:20:28.984Z,27.70
2018-01-15T13:22:58.001Z,26.38
2018-01-15T13:25:27.040Z,25.73
2018-01-15T13:27:56.082Z,27.37
2018-01-15T13:30:25.119Z,26.22
2018-01-15T13:32:55.053Z,30.48
2018-01-15T13:35:24.093Z,33.21
2018-01-15T13:37:53.131Z,34.95
2018-01-15T13:40:22.184Z,35.04
2018-01-15T13:42:51.241Z,37.86
2018-01-15T13:45:20.345Z,35.86
2018-01-15T13:47:49.369Z,36.10
2018-01-15T13:52:57.574Z,39.51
2018-01-15T13:55:26.646Z,39.06
2018-01-15T13:57:56.573Z,42.54
2018-01-15T14:00:25.608Z,43.10
2018-01-15T14:02:54.647Z,42.83
2018-01-15T14:05:29.125Z,40.27
2018-01-15T14:10:33.626Z,40.87
2018-01-15T14:13:02.661Z,40.37
2018-01-15T14:18:07.794Z,43.74
2018-01-15T14:20:36.810Z,47.19
2018-01-15T14:23:05.859Z,50.12
2018-01-15T14:25:34.893Z,48.94
2018-01-15T14:28:03.915Z,49.12
2018-01-15T14:33:09.219Z,45.43
2018-01-15T14:35:38.261Z,46.58
2018-01-15T14:38:07.309Z,48.63
2018-01-15T14:40:36.333Z,52.21
2018-01-15T14:45:40.572Z,48.91
2018-01-15T14:48:09.634Z,51.82
2018-01-15T14:53:05.603Z,56.99
2018-01-15T14:55:34.634Z,59.88
2018-01-15T14:58:07.901Z,60.77
2018-01-15T15:00:36.917Z,59.81
2018-01-15T15:05:41.145Z,55.23
2018-01-15T15:08:10.214Z,60.01
2018-01-15T15:10:39.266Z,61.06
2018-01-15T15:13:08.316Z,57.63
2018-01-15T15:15:37.360Z,61.84
2018-01-15T15:18:06.408Z,58.53
2018-01-15T15:20:35.436Z,59.01
2018-01-15T15:23:04.468Z,63.34
2018-01-15T15:25:33.491Z,64.51
2018-01-15T15:30:37.858Z,56.19
2018-01-15T15:33:06.892Z,62.13
2018-01-15T15:35:35.952Z,60.38
2018-01-15T15:38:05.018Z,61.90
2018-01-15T15:40:33.999Z,64.53
2018-01-15T15:43:03.036Z,61.82
2018-01-15T15:45:32.132Z,61.99
2018-01-15T15:48:01.127Z,64.85
2018-01-15T15:50:30.161Z,63.65
2018-01-15T15:52:59.199Z,68.03
2018-01-15T15:55:28.302Z,65.26
2018-01-15T15:57:57.408Z,60.01
2018-01-15T16:00:33.135Z,64.56
2018-01-15T16:03:02.137Z,71.47
2018-01-15T16:05:36.395Z,63.93
2018-01-15T16:08:05.657Z,69.18
2018-01-15T16:15:46.133Z,64.05
2018-01-15T16:18:15.198Z,63.46
2018-01-15T16:20:44.230Z,65.14
2018-01-15T16:23:13.256Z,66.60
2018-01-15T16:25:42.298Z,69.59
2018-01-15T16:28:11.333Z,68.36
2018-01-15T16:30:40.371Z,69.96
2018-01-15T16:33:09.419Z,64.81
2018-01-15T16:35:38.450Z,64.50
2018-01-15T16:38:10.621Z,67.29
2018-01-15T16:40:39.667Z,64.36
2018-01-15T16:43:08.705Z,66.88
2018-01-15T16:45:37.744Z,66.04
2018-01-15T16:48:06.795Z,74.64
2018-01-15T16:50:35.839Z,70.27
2018-01-15T16:53:04.857Z,67.75
2018-01-15T16:55:33.942Z,71.02
2018-01-15T16:58:02.953Z,67.54
2018-01-15T17:00:32.058Z,65.61
2018-01-15T17:03:01.057Z,68.81
2018-01-15T17:05:30.093Z,64.76
2018-01-15T17:07:59.158Z,70.87
2018-01-15T17:10:28.181Z,70.13
2018-01-15T17:12:57.206Z,68.11
2018-01-15T17:15:26.290Z,68.86
2018-01-15T17:17:55.298Z,70.54
2018-01-15T17:20:24.335Z,63.36
2018-01-15T17:22:53.368Z,69.72
2018-01-15T17:25:22.424Z,66.85
2018-01-15T17:27:52.105Z,66.32
2018-01-15T17:30:21.163Z,65.26
2018-01-15T17:32:50.962Z,64.43
2018-01-15T17:37:55.225Z,66.87
2018-01-15T17:40:24.293Z,69.66
2018-01-15T17:42:53.337Z,71.54
2018-01-15T17:45:22.409Z,69.64
2018-01-15T17:47:51.499Z,75.40
2018-01-15T17:50:21.206Z,70.74
2018-01-15T17:52:50.255Z,69.84
2018-01-15T17:55:20.113Z,66.04
2018-01-15T17:57:49.238Z,68.04
2018-01-15T18:00:19.077Z,65.33
2018-01-15T18:02:48.117Z,68.26
2018-01-15T18:05:17.493Z,66.89
2018-01-15T18:07:46.492Z,65.10
2018-01-15T18:10:15.535Z,69.10
2018-01-15T18:12:44.571Z,67.23
2018-01-15T18:15:13.637Z,70.29
2018-01-15T18:17:42.673Z,69.37
2018-01-15T18:20:12.051Z,66.01
2018-01-15T18:22:41.053Z,67.39
2018-01-15T18:25:10.084Z,67.59
2018-01-15T18:27:39.122Z,68.53
2018-01-15T18:30:08.136Z,65.14
2018-01-15T18:32:37.180Z,67.56
2018-01-15T18:35:06.218Z,68.16
2018-01-15T18:37:35.265Z,68.65
2018-01-15T18:40:04.294Z,66.75
2018-01-15T18:42:33.328Z,67.62
2018-01-15T18:45:02.366Z,66.05
2018-01-15T18:47:31.485Z,67.24
2018-01-15T18:50:00.467Z,68.35
2018-01-15T18:52:29.505Z,70.50
2018-01-15T18:54:58.537Z,65.60
2018-01-15T18:57:28.533Z,68.18
2018-01-15T18:59:57.573Z,67.55
2018-01-15T19:02:28.775Z,69.68
2018-01-15T19:04:57.810Z,67.48
2018-01-15T19:07:26.860Z,68.67
2018-01-15T19:09:57.413Z,69.19
2018-01-15T19:12:26.973Z,70.60
2018-01-15T19:14:56.159Z,68.69
2018-01-15T19:17:25.324Z,69.08
2018-01-15T19:19:54.347Z,67.52
2018-01-15T19:22:23.368Z,70.45
2018-01-15T19:24:52.516Z,66.17
2018-01-15T19:27:22.348Z,68.14
2018-01-15T19:29:51.380Z,67.66
2018-01-15T19:32:20.425Z,68.47
2018-01-15T19:35:06.167Z,66.17
2018-01-15T19:37:52.861Z,66.04
2018-01-15T19:40:22.088Z,70.73
2018-01-15T19:42:51.129Z,66.97
2018-01-15T19:48:05.097Z,67.55
2018-01-15T19:50:44.909Z,65.92
2018-01-15T19:53:19.427Z,71.34
2018-01-15T19:59:03.380Z,68.68
2018-01-15T20:01:59.583Z,69.15
2018-01-15T20:04:51.807Z,71.31
2018-01-15T20:10:05.485Z,70.70
2018-01-15T20:12:34.562Z,68.28
2018-01-15T20:15:03.893Z,69.11
2018-01-15T20:17:33.042Z,70.59
2018-01-15T20:20:02.093Z,66.66
2018-01-15T20:22:31.130Z,68.84
2018-01-15T20:25:00.217Z,72.88
2018-01-15T20:27:29.221Z,73.58
2018-01-15T20:29:58.263Z,72.97
2018-01-15T20:32:28.140Z,72.32
2018-01-15T20:37:32.485Z,72.84
2018-01-15T20:40:01.562Z,74.21
2018-01-15T20:42:30.602Z,73.62
2018-01-15T20:44:59.686Z,74.65
2018-01-15T20:47:28.694Z,75.36
2018-01-15T20:49:57.758Z,75.31
2018-01-15T20:52:26.789Z,77.88
2018-01-15T20:54:55.849Z,77.52
2018-01-15T20:57:24.886Z,76.42
2018-01-15T20:59:54.061Z,76.89
2018-01-15T21:02:23.118Z,74.49
2018-01-15T21:04:52.216Z,75.81
2018-01-15T21:07:21.277Z,74.10
2018-01-15T21:09:50.330Z,73.84
2018-01-15T21:12:21.300Z,79.46
2018-01-15T21:14:50.341Z,78.69
2018-01-15T21:17:20.018Z,80.46
2018-01-15T21:22:24.265Z,76.51
2018-01-15T21:25:02.713Z,74.33
2018-01-15T21:27:33.462Z,77.21
2018-01-15T21:35:29.363Z,73.04
2018-01-15T21:37:58.396Z,76.51
2018-01-15T21:40:35.697Z,72.78
2018-01-15T21:43:10.532Z,73.34
2018-01-15T21:45:46.568Z,75.35
2018-01-15T21:48:15.909Z,74.40
2018-01-15T21:50:44.957Z,72.69
2018-01-15T21:53:14.020Z,72.41
2018-01-15T21:55:43.108Z,72.71
2018-01-15T21:58:14.149Z,72.19
2018-01-15T22:00:43.186Z,71.67
2018-01-15T22:03:12.380Z,72.80
2018-01-15T22:05:47.733Z,71.47
2018-01-15T22:08:16.981Z,73.53
2018-01-15T22:13:34.902Z,70.24
2018-01-15T22:16:03.958Z,73.53
2018-01-15T22:18:36.375Z,69.44
2018-01-15T22:23:41.802Z,72.17
2018-01-15T22:26:14.787Z,69.71
2018-01-15T22:28:43.825Z,74.29
2018-01-15T22:31:13.270Z,77.76
2018-01-15T22:33:43.093Z,80.04
2018-01-15T22:36:15.874Z,79.19
2018-01-15T22:38:44.918Z,75.83
2018-01-15T22:41:24.743Z,74.68
2018-01-15T22:43:57.640Z,73.44
2018-01-15T22:46:26.674Z,71.93
2018-01-15T22:48:55.731Z,71.24
2018-01-15T22:51:26.664Z,72.15
2018-01-15T22:53:56.689Z,75.02
2018-01-15T22:56:26.665Z,73.35
2018-01-15T22:58:55.718Z,74.00
2018-01-15T23:01:25.743Z,70.66
2018-01-15T23:06:30.013Z,68.59
2018-01-15T23:08:59.051Z,66.28
2018-01-15T23:11:28.074Z,65.85
2018-01-15T23:13:57.145Z,64.93
2018-01-15T23:16:26.161Z,65.37
2018-01-15T23:18:55.233Z,65.12
2018-01-15T23:21:24.284Z,64.97
2018-01-15T23:23:53.337Z,65.56
2018-01-15T23:26:22.367Z,66.69
2018-01-15T23:28:51.413Z,64.95
2018-01-15T23:31:20.449Z,64.90
2018-01-15T23:33:49.481Z,65.38
2018-01-15T23:36:18.518Z,66.19
2018-01-15T23:41:27.023Z,64.72
2018-01-15T23:43:56.053Z,63.19
2018-01-15T23:49:06.393Z,61.93
2018-01-15T23:51:35.435Z,61.42
2018-01-15T23:54:06.413Z,61.52
2018-01-15T23:56:35.444Z,61.44
